SWA1576 KAUS-KBOS
Flight info
| Callsign | SWA1576 |
|---|---|
| Flight time | 3h 34m |
| Altitude | 35000 |
| Route | ILEXY4 ZENZI IAH GUSTI Q22 TWOUP/N0452F370 Q22 RBV Q419 JFK ROBUC3 |
| Aircraft | B737/M-SDE2E3FGHIRWXY/LB1 |
Departure
| Time | 2026-05-05 21:57 |
|---|---|
| Airport | Austin Bergstrom International Airport (KAUS) |
Arrival
| Time | 2026-05-06 01:32 |
|---|---|
| Airport | Boston Logan International Airport (KBOS) |
| Time | Latitude | Longitude | Altitude | Speed | Heading |
|---|---|---|---|---|---|
| 2026-05-05 21:38 | 30.20143 | -97.66637 | 526 ft | 0 kts | 351° |
| 2026-05-05 21:50 | 30.20121 | -97.66633 | 526 ft | 4 kts | 351° |
| 2026-05-05 21:51 | 30.20094 | -97.66628 | 526 ft | 3 kts | 351° |
| 2026-05-05 21:51 | 30.20090 | -97.66627 | 526 ft | 0 kts | 351° |
| 2026-05-05 21:53 | 30.20099 | -97.66622 | 526 ft | 3 kts | 39° |
| 2026-05-05 21:53 | 30.20103 | -97.66580 | 526 ft | 7 kts | 114° |
| 2026-05-05 21:53 | 30.20078 | -97.66515 | 526 ft | 9 kts | 114° |
| 2026-05-05 21:53 | 30.20044 | -97.66440 | 526 ft | 11 kts | 124° |
| 2026-05-05 21:54 | 30.19977 | -97.66392 | 526 ft | 12 kts | 172° |
| 2026-05-05 21:54 | 30.19914 | -97.66339 | 526 ft | 13 kts | 98° |
| 2026-05-05 21:54 | 30.19916 | -97.66231 | 526 ft | 14 kts | 89° |
| 2026-05-05 21:54 | 30.19917 | -97.66111 | 526 ft | 16 kts | 89° |
| 2026-05-05 21:55 | 30.19921 | -97.65981 | 526 ft | 17 kts | 89° |
| 2026-05-05 21:55 | 30.19995 | -97.65907 | 525 ft | 18 kts | 359° |
| 2026-05-05 21:55 | 30.20117 | -97.65912 | 526 ft | 18 kts | 358° |
| 2026-05-05 21:55 | 30.20245 | -97.65913 | 526 ft | 19 kts | 359° |
| 2026-05-05 21:56 | 30.20346 | -97.65913 | 527 ft | 8 kts | 7° |
| 2026-05-05 21:56 | 30.20365 | -97.65894 | 527 ft | 5 kts | 66° |
| 2026-05-05 21:56 | 30.20367 | -97.65802 | 528 ft | 10 kts | 122° |
| 2026-05-05 21:56 | 30.20267 | -97.65788 | 526 ft | 34 kts | 178° |
| 2026-05-05 21:57 | 30.19790 | -97.65770 | 523 ft | 101 kts | 172° |
| 2026-05-05 21:57 | 30.18927 | -97.65757 | 530 ft | 149 kts | 176° |
| 2026-05-05 21:57 | 30.17793 | -97.65733 | 755 ft | 174 kts | 181° |
| 2026-05-05 21:57 | 30.16557 | -97.65750 | 1427 ft | 183 kts | 181° |
| 2026-05-05 21:58 | 30.15296 | -97.65703 | 2063 ft | 192 kts | 172° |
| 2026-05-05 21:58 | 30.14300 | -97.65234 | 2213 ft | 215 kts | 140° |
| 2026-05-05 21:58 | 30.14012 | -97.64904 | 2295 ft | 224 kts | 130° |
| 2026-05-05 21:59 | 30.13445 | -97.63114 | 2614 ft | 258 kts | 93° |
| 2026-05-05 21:59 | 30.13957 | -97.61073 | 3235 ft | 276 kts | 58° |
| 2026-05-05 21:59 | 30.15079 | -97.59250 | 3979 ft | 282 kts | 59° |
| 2026-05-05 21:59 | 30.16133 | -97.57316 | 4724 ft | 286 kts | 61° |
| 2026-05-05 22:00 | 30.17184 | -97.55332 | 5428 ft | 295 kts | 59° |
| 2026-05-05 22:00 | 30.18271 | -97.53283 | 6147 ft | 301 kts | 58° |
| 2026-05-05 22:00 | 30.19383 | -97.51201 | 6799 ft | 308 kts | 58° |
| 2026-05-05 22:00 | 30.20517 | -97.49088 | 7530 ft | 310 kts | 58° |
| 2026-05-05 22:01 | 30.21661 | -97.46960 | 8312 ft | 314 kts | 58° |
| 2026-05-05 22:01 | 30.22818 | -97.44810 | 9112 ft | 316 kts | 59° |
| 2026-05-05 22:01 | 30.23988 | -97.42639 | 9847 ft | 319 kts | 59° |
| 2026-05-05 22:01 | 30.25179 | -97.40431 | 10357 ft | 332 kts | 58° |
| 2026-05-05 22:02 | 30.26445 | -97.38079 | 10518 ft | 356 kts | 58° |
| 2026-05-05 22:02 | 30.27791 | -97.35579 | 10707 ft | 376 kts | 58° |
| 2026-05-05 22:02 | 30.29198 | -97.32966 | 11151 ft | 387 kts | 58° |
| 2026-05-05 22:02 | 30.30613 | -97.30335 | 11752 ft | 392 kts | 57° |
| 2026-05-05 22:03 | 30.32058 | -97.27649 | 12396 ft | 396 kts | 57° |
| 2026-05-05 22:03 | 30.33523 | -97.24924 | 13005 ft | 402 kts | 57° |
| 2026-05-05 22:03 | 30.34873 | -97.22055 | 13585 ft | 410 kts | 68° |
| 2026-05-05 22:03 | 30.35661 | -97.18873 | 14159 ft | 413 kts | 82° |
| 2026-05-05 22:04 | 30.35843 | -97.15565 | 14779 ft | 413 kts | 95° |
| 2026-05-05 22:04 | 30.35619 | -97.12236 | 15430 ft | 416 kts | 98° |
| 2026-05-05 22:04 | 30.35448 | -97.10016 | 15827 ft | 419 kts | 97° |
| 2026-05-05 22:04 | 30.35140 | -97.05634 | 16618 ft | 424 kts | 97° |
| 2026-05-05 22:05 | 30.34929 | -97.02218 | 17226 ft | 428 kts | 96° |
| 2026-05-05 22:05 | 30.34731 | -96.98802 | 17806 ft | 432 kts | 96° |
| 2026-05-05 22:05 | 30.34530 | -96.95316 | 18347 ft | 437 kts | 96° |
| 2026-05-05 22:05 | 30.34326 | -96.91792 | 18818 ft | 442 kts | 96° |
| 2026-05-05 22:06 | 30.34116 | -96.88216 | 19276 ft | 447 kts | 96° |
| 2026-05-05 22:06 | 30.33974 | -96.85825 | 19591 ft | 451 kts | 96° |
| 2026-05-05 22:06 | 30.33757 | -96.82220 | 20039 ft | 456 kts | 96° |
| 2026-05-05 22:06 | 30.33535 | -96.78557 | 20468 ft | 461 kts | 96° |
| 2026-05-05 22:07 | 30.33304 | -96.74834 | 20922 ft | 466 kts | 96° |
| 2026-05-05 22:07 | 30.33070 | -96.71074 | 21357 ft | 471 kts | 96° |
| 2026-05-05 22:07 | 30.32834 | -96.67303 | 21781 ft | 476 kts | 96° |
| 2026-05-05 22:07 | 30.32593 | -96.63461 | 22209 ft | 480 kts | 96° |
| 2026-05-05 22:08 | 30.32350 | -96.59582 | 22623 ft | 485 kts | 96° |
| 2026-05-05 22:08 | 30.32104 | -96.55675 | 22987 ft | 490 kts | 96° |
| 2026-05-05 22:08 | 30.31854 | -96.51732 | 23357 ft | 494 kts | 96° |
| 2026-05-05 22:08 | 30.31601 | -96.47750 | 23707 ft | 498 kts | 96° |
| 2026-05-05 22:09 | 30.31348 | -96.43744 | 24068 ft | 501 kts | 96° |
| 2026-05-05 22:09 | 30.31092 | -96.39706 | 24434 ft | 504 kts | 96° |
| 2026-05-05 22:09 | 30.30835 | -96.35650 | 24768 ft | 508 kts | 96° |
| 2026-05-05 22:09 | 30.30574 | -96.31563 | 25097 ft | 511 kts | 96° |
| 2026-05-05 22:10 | 30.30310 | -96.27446 | 25432 ft | 514 kts | 96° |
| 2026-05-05 22:10 | 30.30043 | -96.23306 | 25748 ft | 517 kts | 96° |
| 2026-05-05 22:10 | 30.29774 | -96.19144 | 26069 ft | 521 kts | 96° |
| 2026-05-05 22:10 | 30.29502 | -96.14960 | 26376 ft | 524 kts | 96° |
| 2026-05-05 22:11 | 30.29216 | -96.10805 | 26654 ft | 527 kts | 98° |
| 2026-05-05 22:11 | 30.28572 | -96.06658 | 26983 ft | 527 kts | 108° |
| 2026-05-05 22:11 | 30.27457 | -96.02631 | 27319 ft | 524 kts | 117° |
| 2026-05-05 22:11 | 30.25900 | -95.98903 | 27597 ft | 521 kts | 124° |
| 2026-05-05 22:12 | 30.24187 | -95.95282 | 27981 ft | 520 kts | 125° |
| 2026-05-05 22:12 | 30.22424 | -95.91621 | 28350 ft | 523 kts | 125° |
| 2026-05-05 22:12 | 30.20653 | -95.87930 | 28604 ft | 527 kts | 124° |
| 2026-05-05 22:12 | 30.18885 | -95.84205 | 28870 ft | 530 kts | 124° |
| 2026-05-05 22:13 | 30.17127 | -95.80456 | 29145 ft | 532 kts | 124° |
| 2026-05-05 22:13 | 30.15366 | -95.76675 | 29504 ft | 535 kts | 124° |
| 2026-05-05 22:13 | 30.13605 | -95.72884 | 29775 ft | 537 kts | 124° |
| 2026-05-05 22:13 | 30.11838 | -95.69081 | 30001 ft | 540 kts | 124° |
| 2026-05-05 22:14 | 30.10056 | -95.65254 | 30230 ft | 542 kts | 124° |
| 2026-05-05 22:14 | 30.08271 | -95.61424 | 30607 ft | 541 kts | 124° |
| 2026-05-05 22:14 | 30.06485 | -95.57598 | 30999 ft | 539 kts | 124° |
| 2026-05-05 22:14 | 30.04710 | -95.53800 | 31400 ft | 537 kts | 124° |
| 2026-05-05 22:15 | 30.02938 | -95.50015 | 31754 ft | 536 kts | 124° |
| 2026-05-05 22:15 | 30.01179 | -95.46263 | 32070 ft | 535 kts | 124° |
| 2026-05-05 22:15 | 29.99436 | -95.42550 | 32382 ft | 534 kts | 124° |
| 2026-05-05 22:15 | 29.97778 | -95.38722 | 32856 ft | 535 kts | 117° |
| 2026-05-05 22:16 | 29.96607 | -95.34736 | 33239 ft | 540 kts | 108° |
| 2026-05-05 22:16 | 29.95860 | -95.30493 | 33524 ft | 544 kts | 100° |
| 2026-05-05 22:16 | 29.95619 | -95.26117 | 33748 ft | 548 kts | 91° |
| 2026-05-05 22:16 | 29.95678 | -95.21727 | 34018 ft | 548 kts | 89° |
| 2026-05-05 22:17 | 29.95792 | -95.17333 | 34332 ft | 546 kts | 89° |
| 2026-05-05 22:17 | 29.95914 | -95.12963 | 34657 ft | 544 kts | 89° |
| 2026-05-05 22:17 | 29.96022 | -95.08648 | 34954 ft | 543 kts | 89° |
| 2026-05-05 22:17 | 29.96109 | -95.04306 | 35216 ft | 542 kts | 89° |
| 2026-05-05 22:18 | 29.96178 | -94.99962 | 35466 ft | 541 kts | 90° |
| 2026-05-05 22:18 | 29.96234 | -94.95628 | 35719 ft | 540 kts | 90° |
| 2026-05-05 22:18 | 29.96281 | -94.91366 | 35981 ft | 538 kts | 89° |
| 2026-05-05 22:18 | 29.96326 | -94.87085 | 36303 ft | 535 kts | 89° |
| 2026-05-05 22:19 | 29.96370 | -94.82804 | 36602 ft | 533 kts | 89° |
| 2026-05-05 22:19 | 29.96413 | -94.78566 | 36852 ft | 532 kts | 89° |
| 2026-05-05 22:19 | 29.96457 | -94.74300 | 36857 ft | 535 kts | 89° |
| 2026-05-05 22:20 | 29.96543 | -94.65720 | 36863 ft | 534 kts | 89° |
| 2026-05-05 22:20 | 29.96624 | -94.57191 | 36869 ft | 530 kts | 89° |
| 2026-05-05 22:21 | 29.96699 | -94.48764 | 36862 ft | 528 kts | 89° |
| 2026-05-05 22:21 | 29.96768 | -94.40324 | 36871 ft | 526 kts | 89° |
| 2026-05-05 22:22 | 29.96832 | -94.31899 | 36869 ft | 525 kts | 89° |
| 2026-05-05 22:22 | 29.96890 | -94.23479 | 36875 ft | 525 kts | 89° |
| 2026-05-05 22:23 | 29.96943 | -94.15034 | 36878 ft | 527 kts | 89° |
| 2026-05-05 22:23 | 29.96990 | -94.06621 | 36878 ft | 529 kts | 89° |
| 2026-05-05 22:24 | 29.97033 | -93.98136 | 36878 ft | 532 kts | 89° |
| 2026-05-05 22:24 | 29.97070 | -93.89590 | 36876 ft | 533 kts | 89° |
| 2026-05-05 22:25 | 29.97102 | -93.81025 | 36896 ft | 535 kts | 89° |
| 2026-05-05 22:25 | 29.97127 | -93.72519 | 36885 ft | 535 kts | 89° |
| 2026-05-05 22:26 | 29.97148 | -93.63939 | 36892 ft | 535 kts | 89° |
| 2026-05-05 22:26 | 29.97163 | -93.55363 | 36891 ft | 535 kts | 89° |
| 2026-05-05 22:27 | 29.97173 | -93.46817 | 36890 ft | 534 kts | 89° |
| 2026-05-05 22:27 | 29.97177 | -93.38309 | 36897 ft | 533 kts | 89° |
| 2026-05-05 22:28 | 29.97175 | -93.29768 | 36885 ft | 532 kts | 89° |
| 2026-05-05 22:28 | 29.97168 | -93.21250 | 36890 ft | 530 kts | 89° |
| 2026-05-05 22:29 | 29.97156 | -93.12758 | 36891 ft | 530 kts | 89° |
| 2026-05-05 22:29 | 29.97138 | -93.04266 | 36894 ft | 529 kts | 89° |
| 2026-05-05 22:30 | 29.97116 | -92.95790 | 36906 ft | 528 kts | 89° |
| 2026-05-05 22:30 | 29.97645 | -92.87375 | 36912 ft | 525 kts | 75° |
| 2026-05-05 22:31 | 29.99258 | -92.79214 | 36926 ft | 525 kts | 73° |
| 2026-05-05 22:31 | 30.00952 | -92.71016 | 36914 ft | 526 kts | 74° |
| 2026-05-05 22:32 | 30.02592 | -92.62785 | 36923 ft | 527 kts | 74° |
| 2026-05-05 22:32 | 30.04187 | -92.54534 | 36926 ft | 527 kts | 74° |
| 2026-05-05 22:33 | 30.05769 | -92.46265 | 36917 ft | 528 kts | 74° |
| 2026-05-05 22:33 | 30.07352 | -92.37981 | 36915 ft | 528 kts | 74° |
| 2026-05-05 22:34 | 30.08932 | -92.29694 | 36922 ft | 529 kts | 75° |
| 2026-05-05 22:34 | 30.10499 | -92.21456 | 36921 ft | 529 kts | 74° |
| 2026-05-05 22:35 | 30.12070 | -92.13160 | 36918 ft | 529 kts | 74° |
| 2026-05-05 22:35 | 30.13638 | -92.04856 | 36918 ft | 529 kts | 74° |
| 2026-05-05 22:36 | 30.15201 | -91.96541 | 36919 ft | 529 kts | 74° |
| 2026-05-05 22:36 | 30.16757 | -91.88235 | 36923 ft | 529 kts | 74° |
| 2026-05-05 22:37 | 30.18307 | -91.79932 | 36923 ft | 529 kts | 74° |
| 2026-05-05 22:37 | 30.19853 | -91.71624 | 36925 ft | 528 kts | 74° |
| 2026-05-05 22:38 | 30.21390 | -91.63326 | 36933 ft | 528 kts | 74° |
| 2026-05-05 22:38 | 30.22924 | -91.55020 | 36928 ft | 528 kts | 74° |
| 2026-05-05 22:39 | 30.24449 | -91.46723 | 36926 ft | 527 kts | 74° |
| 2026-05-05 22:39 | 30.25970 | -91.38424 | 36926 ft | 528 kts | 74° |
| 2026-05-05 22:40 | 30.27485 | -91.30125 | 36927 ft | 527 kts | 74° |
| 2026-05-05 22:40 | 30.28995 | -91.21821 | 36933 ft | 527 kts | 74° |
| 2026-05-05 22:41 | 30.30491 | -91.13568 | 36927 ft | 527 kts | 74° |
| 2026-05-05 22:41 | 30.31991 | -91.05253 | 36930 ft | 527 kts | 74° |
| 2026-05-05 22:42 | 30.33486 | -90.96943 | 36933 ft | 528 kts | 74° |
| 2026-05-05 22:42 | 30.34974 | -90.88632 | 36930 ft | 527 kts | 74° |
| 2026-05-05 22:43 | 30.36458 | -90.80315 | 36936 ft | 527 kts | 74° |
| 2026-05-05 22:43 | 30.37936 | -90.71997 | 36940 ft | 527 kts | 74° |
| 2026-05-05 22:44 | 30.39408 | -90.63688 | 36938 ft | 527 kts | 74° |
| 2026-05-05 22:44 | 30.40875 | -90.55372 | 36944 ft | 528 kts | 74° |
| 2026-05-05 22:45 | 30.42339 | -90.47036 | 36951 ft | 528 kts | 74° |
| 2026-05-05 22:45 | 30.43798 | -90.38700 | 36943 ft | 528 kts | 74° |
| 2026-05-05 22:46 | 30.45253 | -90.30347 | 36943 ft | 529 kts | 74° |
| 2026-05-05 22:46 | 30.46705 | -90.21987 | 36943 ft | 529 kts | 74° |
| 2026-05-05 22:47 | 30.48444 | -90.13725 | 36960 ft | 525 kts | 68° |
| 2026-05-05 22:47 | 30.50561 | -90.05685 | 36944 ft | 525 kts | 67° |
| 2026-05-05 22:48 | 30.52718 | -89.97596 | 36957 ft | 525 kts | 68° |
| 2026-05-05 22:48 | 30.54812 | -89.89482 | 36954 ft | 525 kts | 68° |
| 2026-05-05 22:49 | 30.56870 | -89.81340 | 36951 ft | 525 kts | 68° |
| 2026-05-05 22:49 | 30.58915 | -89.73208 | 36952 ft | 525 kts | 68° |
| 2026-05-05 22:50 | 30.60959 | -89.65074 | 36960 ft | 525 kts | 68° |
| 2026-05-05 22:50 | 30.62999 | -89.56941 | 36950 ft | 525 kts | 68° |
| 2026-05-05 22:51 | 30.65035 | -89.48802 | 36962 ft | 525 kts | 68° |
| 2026-05-05 22:51 | 30.67064 | -89.40667 | 36949 ft | 525 kts | 68° |
| 2026-05-05 22:52 | 30.69088 | -89.32529 | 36957 ft | 524 kts | 68° |
| 2026-05-05 22:52 | 30.71107 | -89.24387 | 36972 ft | 524 kts | 68° |
| 2026-05-05 22:53 | 30.73123 | -89.16231 | 36965 ft | 525 kts | 68° |
| 2026-05-05 22:53 | 30.75134 | -89.08075 | 36957 ft | 525 kts | 68° |
| 2026-05-05 22:54 | 30.77126 | -88.99966 | 36954 ft | 525 kts | 68° |
| 2026-05-05 22:54 | 30.79126 | -88.91805 | 36968 ft | 525 kts | 68° |
| 2026-05-05 22:55 | 30.81119 | -88.83649 | 36966 ft | 524 kts | 68° |
| 2026-05-05 22:55 | 30.83108 | -88.75480 | 36970 ft | 524 kts | 68° |
| 2026-05-05 22:56 | 30.85090 | -88.67319 | 36969 ft | 524 kts | 68° |
| 2026-05-05 22:56 | 30.86746 | -88.60482 | 36972 ft | 524 kts | 68° |
| 2026-05-05 22:57 | 30.88717 | -88.52320 | 36980 ft | 524 kts | 69° |
| 2026-05-05 22:57 | 30.90668 | -88.44217 | 36994 ft | 523 kts | 68° |
| 2026-05-05 22:58 | 30.92821 | -88.36156 | 36979 ft | 516 kts | 59° |
| 2026-05-05 22:58 | 30.96184 | -88.28922 | 36992 ft | 506 kts | 51° |
| 2026-05-05 22:59 | 30.99756 | -88.21845 | 36987 ft | 506 kts | 52° |
| 2026-05-05 22:59 | 31.03289 | -88.14720 | 36972 ft | 508 kts | 52° |
| 2026-05-05 23:00 | 31.08524 | -88.03959 | 36983 ft | 508 kts | 52° |
| 2026-05-05 23:00 | 31.12005 | -87.96773 | 36981 ft | 509 kts | 52° |
| 2026-05-05 23:01 | 31.15487 | -87.89579 | 36980 ft | 509 kts | 52° |
| 2026-05-05 23:01 | 31.18967 | -87.82381 | 36987 ft | 509 kts | 52° |
| 2026-05-05 23:02 | 31.22444 | -87.75173 | 37027 ft | 509 kts | 52° |
| 2026-05-05 23:02 | 31.25900 | -87.67996 | 36994 ft | 510 kts | 52° |
| 2026-05-05 23:03 | 31.29400 | -87.60715 | 36976 ft | 511 kts | 52° |
| 2026-05-05 23:03 | 31.33348 | -87.54050 | 36995 ft | 495 kts | 40° |
| 2026-05-05 23:04 | 31.37819 | -87.47948 | 36981 ft | 494 kts | 39° |
| 2026-05-05 23:04 | 31.42313 | -87.41866 | 36978 ft | 494 kts | 39° |
| 2026-05-05 23:05 | 31.46780 | -87.35724 | 36986 ft | 495 kts | 40° |
| 2026-05-05 23:05 | 31.51220 | -87.29549 | 37005 ft | 496 kts | 39° |
| 2026-05-05 23:06 | 31.55667 | -87.23346 | 36981 ft | 497 kts | 39° |
| 2026-05-05 23:06 | 31.60114 | -87.17133 | 36992 ft | 497 kts | 39° |
| 2026-05-05 23:07 | 31.64556 | -87.10919 | 36952 ft | 497 kts | 39° |
| 2026-05-05 23:07 | 31.68995 | -87.04702 | 36931 ft | 497 kts | 39° |
| 2026-05-05 23:08 | 31.73401 | -86.98520 | 36919 ft | 496 kts | 39° |
| 2026-05-05 23:08 | 31.77832 | -86.92292 | 36950 ft | 496 kts | 39° |
| 2026-05-05 23:09 | 31.82265 | -86.86054 | 36937 ft | 496 kts | 39° |
| 2026-05-05 23:09 | 31.86687 | -86.79820 | 36956 ft | 496 kts | 39° |
| 2026-05-05 23:10 | 31.91099 | -86.73589 | 36976 ft | 496 kts | 39° |
| 2026-05-05 23:10 | 31.95510 | -86.67351 | 36974 ft | 496 kts | 39° |
| 2026-05-05 23:11 | 31.99918 | -86.61105 | 36970 ft | 495 kts | 39° |
| 2026-05-05 23:11 | 32.04318 | -86.54860 | 36993 ft | 495 kts | 39° |
| 2026-05-05 23:12 | 32.08723 | -86.48599 | 36976 ft | 496 kts | 39° |
| 2026-05-05 23:12 | 32.13126 | -86.42330 | 36972 ft | 495 kts | 39° |
| 2026-05-05 23:13 | 32.17511 | -86.36073 | 36986 ft | 494 kts | 39° |
| 2026-05-05 23:13 | 32.21888 | -86.29820 | 36992 ft | 494 kts | 39° |
| 2026-05-05 23:14 | 32.26260 | -86.23565 | 36965 ft | 493 kts | 39° |
| 2026-05-05 23:14 | 32.30624 | -86.17310 | 37004 ft | 493 kts | 39° |
| 2026-05-05 23:15 | 32.34985 | -86.11050 | 36973 ft | 493 kts | 39° |
| 2026-05-05 23:15 | 32.39341 | -86.04783 | 36958 ft | 493 kts | 39° |
| 2026-05-05 23:16 | 32.43659 | -85.98562 | 36971 ft | 492 kts | 39° |
| 2026-05-05 23:16 | 32.47995 | -85.92305 | 36964 ft | 491 kts | 39° |
| 2026-05-05 23:17 | 32.52325 | -85.86046 | 36969 ft | 491 kts | 39° |
| 2026-05-05 23:17 | 32.56651 | -85.79783 | 36997 ft | 491 kts | 39° |
| 2026-05-05 23:18 | 32.60982 | -85.73505 | 37000 ft | 492 kts | 39° |
| 2026-05-05 23:18 | 32.65311 | -85.67216 | 37001 ft | 492 kts | 39° |
| 2026-05-05 23:19 | 32.69643 | -85.60911 | 37016 ft | 492 kts | 39° |
| 2026-05-05 23:19 | 32.73966 | -85.54609 | 37018 ft | 493 kts | 39° |
| 2026-05-05 23:20 | 32.78295 | -85.48288 | 37011 ft | 493 kts | 39° |
| 2026-05-05 23:20 | 32.82619 | -85.41962 | 37024 ft | 494 kts | 39° |
| 2026-05-05 23:21 | 32.86946 | -85.35624 | 37005 ft | 493 kts | 39° |
| 2026-05-05 23:21 | 32.91267 | -85.29279 | 37005 ft | 493 kts | 39° |
| 2026-05-05 23:22 | 32.95574 | -85.22946 | 37017 ft | 492 kts | 39° |
| 2026-05-05 23:22 | 32.99849 | -85.16650 | 37026 ft | 491 kts | 39° |
| 2026-05-05 23:23 | 33.04140 | -85.10319 | 37030 ft | 491 kts | 39° |
| 2026-05-05 23:23 | 33.08430 | -85.03981 | 37011 ft | 491 kts | 39° |
| 2026-05-05 23:24 | 33.12715 | -84.97638 | 37006 ft | 490 kts | 39° |
| 2026-05-05 23:24 | 33.16985 | -84.91304 | 37010 ft | 489 kts | 39° |
| 2026-05-05 23:25 | 33.21248 | -84.84970 | 37022 ft | 488 kts | 39° |
| 2026-05-05 23:25 | 33.25494 | -84.78652 | 37024 ft | 487 kts | 39° |
| 2026-05-05 23:26 | 33.29734 | -84.72333 | 37026 ft | 487 kts | 39° |
| 2026-05-05 23:26 | 33.33961 | -84.66023 | 37022 ft | 487 kts | 39° |
| 2026-05-05 23:27 | 33.38156 | -84.59748 | 37016 ft | 487 kts | 39° |
| 2026-05-05 23:27 | 33.42411 | -84.53372 | 37020 ft | 486 kts | 39° |
| 2026-05-05 23:28 | 33.46583 | -84.47110 | 37012 ft | 486 kts | 39° |
| 2026-05-05 23:28 | 33.50797 | -84.40774 | 37004 ft | 486 kts | 39° |
| 2026-05-05 23:29 | 33.55006 | -84.34436 | 37037 ft | 486 kts | 39° |
| 2026-05-05 23:29 | 33.59213 | -84.28089 | 37035 ft | 487 kts | 39° |
| 2026-05-05 23:30 | 33.63417 | -84.21734 | 37020 ft | 486 kts | 39° |
| 2026-05-05 23:30 | 33.67617 | -84.15374 | 37008 ft | 485 kts | 39° |
| 2026-05-05 23:31 | 33.71805 | -84.09020 | 37006 ft | 485 kts | 39° |
| 2026-05-05 23:31 | 33.75975 | -84.02684 | 37022 ft | 484 kts | 39° |
| 2026-05-05 23:32 | 33.80153 | -83.96325 | 37018 ft | 484 kts | 39° |
| 2026-05-05 23:32 | 33.84325 | -83.89965 | 37033 ft | 484 kts | 40° |
| 2026-05-05 23:33 | 33.88483 | -83.83611 | 37019 ft | 483 kts | 40° |
| 2026-05-05 23:33 | 33.92586 | -83.77185 | 37025 ft | 485 kts | 42° |
| 2026-05-05 23:34 | 33.96583 | -83.70650 | 37021 ft | 484 kts | 42° |
| 2026-05-05 23:34 | 34.00563 | -83.64112 | 37026 ft | 483 kts | 42° |
| 2026-05-05 23:35 | 34.04546 | -83.57595 | 37031 ft | 483 kts | 42° |
| 2026-05-05 23:35 | 34.08519 | -83.51108 | 37048 ft | 483 kts | 42° |
| 2026-05-05 23:36 | 34.12513 | -83.44576 | 37024 ft | 483 kts | 43° |
| 2026-05-05 23:36 | 34.16489 | -83.38057 | 36997 ft | 483 kts | 43° |
| 2026-05-05 23:37 | 34.20470 | -83.31519 | 37001 ft | 483 kts | 43° |
| 2026-05-05 23:37 | 34.24443 | -83.24983 | 36993 ft | 483 kts | 43° |
| 2026-05-05 23:38 | 34.28405 | -83.18452 | 36990 ft | 483 kts | 43° |
| 2026-05-05 23:38 | 34.32362 | -83.11920 | 37000 ft | 483 kts | 43° |
| 2026-05-05 23:39 | 34.36293 | -83.05417 | 36982 ft | 483 kts | 43° |
| 2026-05-05 23:39 | 34.40248 | -82.98861 | 36978 ft | 482 kts | 43° |
| 2026-05-05 23:40 | 34.44195 | -82.92307 | 36984 ft | 481 kts | 43° |
| 2026-05-05 23:40 | 34.48133 | -82.85756 | 37001 ft | 481 kts | 43° |
| 2026-05-05 23:41 | 34.52064 | -82.79207 | 37003 ft | 480 kts | 43° |
| 2026-05-05 23:41 | 34.55995 | -82.72648 | 37005 ft | 481 kts | 43° |
| 2026-05-05 23:42 | 34.59922 | -82.66079 | 36998 ft | 481 kts | 43° |
| 2026-05-05 23:42 | 34.63845 | -82.59504 | 36998 ft | 481 kts | 44° |
| 2026-05-05 23:43 | 34.67766 | -82.52922 | 37004 ft | 481 kts | 44° |
| 2026-05-05 23:43 | 34.71019 | -82.47452 | 37015 ft | 480 kts | 44° |
| 2026-05-05 23:44 | 34.74708 | -82.41237 | 37020 ft | 480 kts | 44° |
| 2026-05-05 23:44 | 34.78617 | -82.34644 | 37016 ft | 481 kts | 44° |
| 2026-05-05 23:45 | 34.82529 | -82.28029 | 37016 ft | 481 kts | 44° |
| 2026-05-05 23:45 | 34.86428 | -82.21424 | 37008 ft | 480 kts | 44° |
| 2026-05-05 23:46 | 34.90318 | -82.14822 | 37011 ft | 480 kts | 44° |
| 2026-05-05 23:46 | 34.94207 | -82.08212 | 37009 ft | 480 kts | 44° |
| 2026-05-05 23:47 | 34.98091 | -82.01595 | 37008 ft | 479 kts | 44° |
| 2026-05-05 23:47 | 35.01962 | -81.94992 | 37012 ft | 480 kts | 44° |
| 2026-05-05 23:48 | 35.05848 | -81.88474 | 37002 ft | 478 kts | 43° |
| 2026-05-05 23:48 | 35.09878 | -81.82027 | 37001 ft | 477 kts | 42° |
| 2026-05-05 23:49 | 35.13926 | -81.75567 | 37266 ft | 479 kts | 42° |
| 2026-05-05 23:49 | 35.15935 | -81.72333 | 37587 ft | 477 kts | 42° |
| 2026-05-05 23:49 | 35.17903 | -81.69153 | 37875 ft | 475 kts | 42° |
| 2026-05-05 23:50 | 35.19890 | -81.65935 | 38107 ft | 474 kts | 42° |
| 2026-05-05 23:50 | 35.21878 | -81.62712 | 38343 ft | 474 kts | 42° |
| 2026-05-05 23:50 | 35.23877 | -81.59471 | 38487 ft | 475 kts | 42° |
| 2026-05-05 23:50 | 35.25843 | -81.56281 | 38614 ft | 476 kts | 42° |
| 2026-05-05 23:51 | 35.27835 | -81.53045 | 38733 ft | 476 kts | 42° |
| 2026-05-05 23:51 | 35.29733 | -81.49955 | 38898 ft | 475 kts | 42° |
| 2026-05-05 23:51 | 35.33603 | -81.43652 | 38979 ft | 478 kts | 43° |
| 2026-05-05 23:52 | 35.37480 | -81.37323 | 38990 ft | 476 kts | 43° |
| 2026-05-05 23:52 | 35.41435 | -81.30852 | 39005 ft | 474 kts | 43° |
| 2026-05-05 23:53 | 35.45340 | -81.24459 | 39034 ft | 473 kts | 42° |
| 2026-05-05 23:53 | 35.49237 | -81.18065 | 39019 ft | 472 kts | 42° |
| 2026-05-05 23:54 | 35.53155 | -81.11623 | 39004 ft | 471 kts | 43° |
| 2026-05-05 23:54 | 35.57073 | -81.05172 | 39013 ft | 471 kts | 43° |
| 2026-05-05 23:55 | 35.60965 | -80.98759 | 39008 ft | 471 kts | 43° |
| 2026-05-05 23:55 | 35.64858 | -80.92340 | 39020 ft | 471 kts | 43° |
| 2026-05-05 23:56 | 35.68783 | -80.85859 | 39023 ft | 477 kts | 43° |
| 2026-05-05 23:56 | 35.72763 | -80.79271 | 39017 ft | 480 kts | 43° |
| 2026-05-05 23:57 | 35.76743 | -80.72662 | 39005 ft | 482 kts | 43° |
| 2026-05-05 23:57 | 35.80707 | -80.66066 | 38995 ft | 482 kts | 43° |
| 2026-05-05 23:58 | 35.84687 | -80.59433 | 38997 ft | 482 kts | 43° |
| 2026-05-05 23:58 | 35.88666 | -80.52790 | 38996 ft | 481 kts | 43° |
| 2026-05-05 23:59 | 35.92631 | -80.46158 | 38989 ft | 480 kts | 43° |
| 2026-05-05 23:59 | 35.96581 | -80.39540 | 38981 ft | 478 kts | 43° |
| 2026-05-06 00:00 | 36.00511 | -80.32933 | 38970 ft | 477 kts | 43° |
| 2026-05-06 00:00 | 36.04421 | -80.26332 | 38985 ft | 475 kts | 43° |
| 2026-05-06 00:01 | 36.08323 | -80.19736 | 38975 ft | 475 kts | 43° |
| 2026-05-06 00:01 | 36.12220 | -80.13136 | 38991 ft | 476 kts | 43° |
| 2026-05-06 00:02 | 36.16116 | -80.06525 | 39004 ft | 475 kts | 43° |
| 2026-05-06 00:02 | 36.20008 | -79.99921 | 38998 ft | 475 kts | 43° |
| 2026-05-06 00:03 | 36.23903 | -79.93329 | 38995 ft | 474 kts | 43° |
| 2026-05-06 00:03 | 36.27766 | -79.86779 | 38991 ft | 474 kts | 43° |
| 2026-05-06 00:04 | 36.31652 | -79.80175 | 39013 ft | 475 kts | 43° |
| 2026-05-06 00:04 | 36.35514 | -79.73596 | 38992 ft | 476 kts | 43° |
| 2026-05-06 00:05 | 36.39665 | -79.67404 | 38983 ft | 462 kts | 34° |
| 2026-05-06 00:05 | 36.41910 | -79.64596 | 38966 ft | 460 kts | 33° |
| 2026-05-06 00:06 | 36.46469 | -79.59026 | 38965 ft | 460 kts | 33° |
| 2026-05-06 00:06 | 36.51007 | -79.53418 | 38965 ft | 461 kts | 33° |
| 2026-05-06 00:07 | 36.55500 | -79.47778 | 38973 ft | 462 kts | 34° |
| 2026-05-06 00:07 | 36.59991 | -79.42097 | 38994 ft | 462 kts | 34° |
| 2026-05-06 00:08 | 36.64477 | -79.36405 | 38981 ft | 462 kts | 34° |
| 2026-05-06 00:08 | 36.68950 | -79.30721 | 38976 ft | 461 kts | 34° |
| 2026-05-06 00:09 | 36.73436 | -79.25014 | 38976 ft | 461 kts | 34° |
| 2026-05-06 00:09 | 36.77894 | -79.19335 | 38974 ft | 462 kts | 34° |
| 2026-05-06 00:10 | 36.82384 | -79.13605 | 38962 ft | 462 kts | 34° |
| 2026-05-06 00:10 | 36.86836 | -79.07912 | 38968 ft | 462 kts | 34° |
| 2026-05-06 00:11 | 36.91358 | -79.02121 | 38972 ft | 462 kts | 34° |
| 2026-05-06 00:11 | 36.95818 | -78.96397 | 38966 ft | 463 kts | 34° |
| 2026-05-06 00:12 | 37.00338 | -78.90585 | 38973 ft | 463 kts | 34° |
| 2026-05-06 00:12 | 37.04833 | -78.84796 | 38967 ft | 464 kts | 34° |
| 2026-05-06 00:13 | 37.09321 | -78.79005 | 38970 ft | 464 kts | 34° |
| 2026-05-06 00:13 | 37.13715 | -78.73324 | 38971 ft | 465 kts | 34° |
| 2026-05-06 00:14 | 37.18244 | -78.67460 | 38992 ft | 465 kts | 35° |
| 2026-05-06 00:14 | 37.22701 | -78.61680 | 38972 ft | 465 kts | 35° |
| 2026-05-06 00:15 | 37.27219 | -78.55807 | 38951 ft | 466 kts | 35° |
| 2026-05-06 00:15 | 37.31686 | -78.49989 | 38956 ft | 465 kts | 35° |
| 2026-05-06 00:16 | 37.36177 | -78.44131 | 38952 ft | 466 kts | 35° |
| 2026-05-06 00:16 | 37.40669 | -78.38261 | 38962 ft | 466 kts | 36° |
| 2026-05-06 00:17 | 37.45161 | -78.32379 | 38958 ft | 466 kts | 36° |
| 2026-05-06 00:17 | 37.49656 | -78.26484 | 38949 ft | 467 kts | 36° |
| 2026-05-06 00:18 | 37.54148 | -78.20580 | 38946 ft | 467 kts | 36° |
| 2026-05-06 00:18 | 37.58637 | -78.14669 | 38943 ft | 467 kts | 36° |
| 2026-05-06 00:19 | 37.63128 | -78.08746 | 38948 ft | 467 kts | 36° |
| 2026-05-06 00:19 | 37.67616 | -78.02816 | 38947 ft | 467 kts | 36° |
| 2026-05-06 00:20 | 37.72063 | -77.96927 | 38939 ft | 468 kts | 36° |
| 2026-05-06 00:20 | 37.76538 | -77.90993 | 38950 ft | 468 kts | 36° |
| 2026-05-06 00:21 | 37.81022 | -77.85032 | 38933 ft | 468 kts | 36° |
| 2026-05-06 00:21 | 37.85487 | -77.79086 | 38942 ft | 467 kts | 36° |
| 2026-05-06 00:22 | 37.89963 | -77.73115 | 38946 ft | 467 kts | 36° |
| 2026-05-06 00:22 | 37.94408 | -77.67175 | 38943 ft | 467 kts | 36° |
| 2026-05-06 00:23 | 37.98844 | -77.61235 | 38945 ft | 467 kts | 36° |
| 2026-05-06 00:23 | 38.03292 | -77.55271 | 38933 ft | 467 kts | 37° |
| 2026-05-06 00:24 | 38.07754 | -77.49272 | 38940 ft | 467 kts | 37° |
| 2026-05-06 00:24 | 38.12212 | -77.43268 | 38923 ft | 467 kts | 37° |
| 2026-05-06 00:25 | 38.16663 | -77.37262 | 38923 ft | 467 kts | 37° |
| 2026-05-06 00:25 | 38.21117 | -77.31241 | 38955 ft | 467 kts | 37° |
| 2026-05-06 00:26 | 38.25556 | -77.25230 | 38936 ft | 468 kts | 37° |
| 2026-05-06 00:26 | 38.30005 | -77.19196 | 38929 ft | 467 kts | 38° |
| 2026-05-06 00:27 | 38.34447 | -77.13154 | 38921 ft | 467 kts | 38° |
| 2026-05-06 00:27 | 38.38852 | -77.07152 | 38919 ft | 466 kts | 38° |
| 2026-05-06 00:28 | 38.43257 | -77.01141 | 38924 ft | 466 kts | 38° |
| 2026-05-06 00:28 | 38.47679 | -76.95094 | 38919 ft | 466 kts | 38° |
| 2026-05-06 00:29 | 38.52107 | -76.89027 | 38916 ft | 466 kts | 38° |
| 2026-05-06 00:29 | 38.56516 | -76.82976 | 38912 ft | 467 kts | 38° |
| 2026-05-06 00:30 | 38.60936 | -76.76897 | 38932 ft | 467 kts | 38° |
| 2026-05-06 00:30 | 38.65348 | -76.70817 | 38908 ft | 467 kts | 38° |
| 2026-05-06 00:31 | 38.69766 | -76.64716 | 38917 ft | 467 kts | 38° |
| 2026-05-06 00:31 | 38.73408 | -76.59678 | 38904 ft | 467 kts | 38° |
| 2026-05-06 00:32 | 38.77804 | -76.53587 | 38914 ft | 467 kts | 38° |
| 2026-05-06 00:32 | 38.82210 | -76.47470 | 38925 ft | 468 kts | 39° |
| 2026-05-06 00:33 | 38.86625 | -76.41328 | 38927 ft | 468 kts | 39° |
| 2026-05-06 00:33 | 38.91035 | -76.35181 | 38925 ft | 468 kts | 39° |
| 2026-05-06 00:34 | 38.95446 | -76.29021 | 38922 ft | 468 kts | 39° |
| 2026-05-06 00:34 | 38.99850 | -76.22857 | 38949 ft | 468 kts | 39° |
| 2026-05-06 00:35 | 39.04256 | -76.16680 | 38930 ft | 469 kts | 39° |
| 2026-05-06 00:35 | 39.08647 | -76.10511 | 38925 ft | 469 kts | 39° |
| 2026-05-06 00:36 | 39.13053 | -76.04308 | 38913 ft | 469 kts | 39° |
| 2026-05-06 00:36 | 39.17433 | -75.98069 | 38912 ft | 470 kts | 40° |
| 2026-05-06 00:37 | 39.21773 | -75.91764 | 38924 ft | 470 kts | 40° |
| 2026-05-06 00:37 | 39.26107 | -75.85443 | 38910 ft | 470 kts | 40° |
| 2026-05-06 00:38 | 39.30446 | -75.79119 | 38908 ft | 470 kts | 40° |
| 2026-05-06 00:38 | 39.34713 | -75.72897 | 38910 ft | 470 kts | 41° |
| 2026-05-06 00:39 | 39.39062 | -75.66543 | 38913 ft | 470 kts | 41° |
| 2026-05-06 00:39 | 39.43394 | -75.60202 | 38908 ft | 470 kts | 41° |
| 2026-05-06 00:40 | 39.47684 | -75.53909 | 38899 ft | 470 kts | 41° |
| 2026-05-06 00:40 | 39.52000 | -75.47564 | 38905 ft | 470 kts | 41° |
| 2026-05-06 00:41 | 39.56314 | -75.41215 | 38573 ft | 473 kts | 41° |
| 2026-05-06 00:41 | 39.58485 | -75.38011 | 38296 ft | 470 kts | 42° |
| 2026-05-06 00:41 | 39.60635 | -75.34833 | 38018 ft | 470 kts | 42° |
| 2026-05-06 00:41 | 39.62794 | -75.31641 | 37749 ft | 471 kts | 42° |
| 2026-05-06 00:42 | 39.64956 | -75.28443 | 37474 ft | 472 kts | 42° |
| 2026-05-06 00:42 | 39.67118 | -75.25241 | 37208 ft | 472 kts | 42° |
| 2026-05-06 00:42 | 39.69286 | -75.22026 | 36945 ft | 473 kts | 42° |
| 2026-05-06 00:42 | 39.71452 | -75.18812 | 36687 ft | 474 kts | 42° |
| 2026-05-06 00:43 | 39.73627 | -75.15581 | 36425 ft | 475 kts | 43° |
| 2026-05-06 00:43 | 39.75765 | -75.12400 | 36176 ft | 476 kts | 43° |
| 2026-05-06 00:43 | 39.77936 | -75.09167 | 35928 ft | 477 kts | 43° |
| 2026-05-06 00:43 | 39.80117 | -75.05917 | 35670 ft | 477 kts | 43° |
| 2026-05-06 00:44 | 39.82298 | -75.02662 | 35419 ft | 477 kts | 44° |
| 2026-05-06 00:44 | 39.84478 | -74.99405 | 35188 ft | 477 kts | 44° |
| 2026-05-06 00:44 | 39.86656 | -74.96147 | 34984 ft | 478 kts | 44° |
| 2026-05-06 00:45 | 39.90993 | -74.89653 | 34914 ft | 480 kts | 44° |
| 2026-05-06 00:45 | 39.95373 | -74.83079 | 34923 ft | 481 kts | 44° |
| 2026-05-06 00:46 | 39.99692 | -74.76583 | 34916 ft | 480 kts | 44° |
| 2026-05-06 00:46 | 40.04070 | -74.69983 | 34912 ft | 480 kts | 44° |
| 2026-05-06 00:47 | 40.08431 | -74.63396 | 34891 ft | 480 kts | 44° |
| 2026-05-06 00:47 | 40.12755 | -74.56851 | 34897 ft | 480 kts | 44° |
| 2026-05-06 00:48 | 40.17115 | -74.50238 | 34888 ft | 480 kts | 44° |
| 2026-05-06 00:48 | 40.21418 | -74.43697 | 34912 ft | 481 kts | 44° |
| 2026-05-06 00:49 | 40.25779 | -74.37054 | 34921 ft | 481 kts | 44° |
| 2026-05-06 00:49 | 40.30132 | -74.30408 | 34931 ft | 481 kts | 44° |
| 2026-05-06 00:50 | 40.34476 | -74.23761 | 34929 ft | 480 kts | 44° |
| 2026-05-06 00:50 | 40.38818 | -74.17103 | 34923 ft | 480 kts | 44° |
| 2026-05-06 00:51 | 40.43152 | -74.10444 | 34889 ft | 480 kts | 44° |
| 2026-05-06 00:51 | 40.47483 | -74.03774 | 34910 ft | 480 kts | 45° |
| 2026-05-06 00:52 | 40.51812 | -73.97094 | 34899 ft | 480 kts | 45° |
| 2026-05-06 00:52 | 40.56145 | -73.90391 | 34907 ft | 481 kts | 45° |
| 2026-05-06 00:53 | 40.60495 | -73.83652 | 34233 ft | 490 kts | 45° |
| 2026-05-06 00:53 | 40.62701 | -73.80229 | 33530 ft | 489 kts | 45° |
| 2026-05-06 00:53 | 40.64902 | -73.76807 | 32681 ft | 491 kts | 46° |
| 2026-05-06 00:53 | 40.67110 | -73.73371 | 31892 ft | 492 kts | 46° |
| 2026-05-06 00:54 | 40.69309 | -73.69943 | 31307 ft | 489 kts | 47° |
| 2026-05-06 00:54 | 40.71481 | -73.66552 | 30753 ft | 492 kts | 47° |
| 2026-05-06 00:54 | 40.73700 | -73.63088 | 30172 ft | 496 kts | 47° |
| 2026-05-06 00:54 | 40.75933 | -73.59597 | 29544 ft | 499 kts | 47° |
| 2026-05-06 00:55 | 40.78169 | -73.56098 | 28856 ft | 500 kts | 47° |
| 2026-05-06 00:55 | 40.80409 | -73.52587 | 28277 ft | 500 kts | 47° |
| 2026-05-06 00:55 | 40.82649 | -73.49073 | 27636 ft | 500 kts | 47° |
| 2026-05-06 00:55 | 40.84881 | -73.45568 | 27094 ft | 497 kts | 48° |
| 2026-05-06 00:56 | 40.87126 | -73.42078 | 26966 ft | 500 kts | 47° |
| 2026-05-06 00:56 | 40.89437 | -73.38630 | 26902 ft | 502 kts | 46° |
| 2026-05-06 00:56 | 40.91748 | -73.35252 | 26900 ft | 503 kts | 45° |
| 2026-05-06 00:56 | 40.94100 | -73.31824 | 26884 ft | 503 kts | 45° |
| 2026-05-06 00:57 | 40.96414 | -73.28436 | 26649 ft | 490 kts | 45° |
| 2026-05-06 00:57 | 40.98651 | -73.25140 | 25974 ft | 486 kts | 46° |
| 2026-05-06 00:57 | 41.00897 | -73.21817 | 25069 ft | 484 kts | 46° |
| 2026-05-06 00:57 | 41.03139 | -73.18488 | 24185 ft | 483 kts | 46° |
| 2026-05-06 00:58 | 41.05325 | -73.15237 | 23484 ft | 479 kts | 47° |
| 2026-05-06 00:58 | 41.07537 | -73.11939 | 23220 ft | 481 kts | 47° |
| 2026-05-06 00:58 | 41.09739 | -73.08655 | 23115 ft | 480 kts | 47° |
| 2026-05-06 00:58 | 41.11943 | -73.05365 | 22966 ft | 476 kts | 47° |
| 2026-05-06 00:59 | 41.14088 | -73.02160 | 22942 ft | 475 kts | 47° |
| 2026-05-06 00:59 | 41.16348 | -72.98780 | 22935 ft | 478 kts | 47° |
| 2026-05-06 00:59 | 41.18551 | -72.95482 | 22931 ft | 478 kts | 47° |
| 2026-05-06 00:59 | 41.20759 | -72.92146 | 22931 ft | 485 kts | 49° |
| 2026-05-06 01:00 | 41.22641 | -72.88398 | 22928 ft | 491 kts | 60° |
| 2026-05-06 01:00 | 41.24207 | -72.84354 | 22927 ft | 492 kts | 63° |
| 2026-05-06 01:00 | 41.25694 | -72.80243 | 22926 ft | 494 kts | 64° |
| 2026-05-06 01:00 | 41.27169 | -72.76124 | 22923 ft | 494 kts | 63° |
| 2026-05-06 01:01 | 41.28665 | -72.72011 | 22926 ft | 493 kts | 63° |
| 2026-05-06 01:01 | 41.30170 | -72.67957 | 22955 ft | 492 kts | 63° |
| 2026-05-06 01:01 | 41.31678 | -72.63958 | 22952 ft | 491 kts | 62° |
| 2026-05-06 01:01 | 41.33190 | -72.59976 | 22843 ft | 474 kts | 62° |
| 2026-05-06 01:02 | 41.34652 | -72.56134 | 22733 ft | 456 kts | 62° |
| 2026-05-06 01:02 | 41.36053 | -72.52448 | 22612 ft | 438 kts | 62° |
| 2026-05-06 01:02 | 41.37402 | -72.48894 | 22384 ft | 425 kts | 62° |
| 2026-05-06 01:02 | 41.38726 | -72.45398 | 21850 ft | 421 kts | 62° |
| 2026-05-06 01:03 | 41.40035 | -72.41939 | 21540 ft | 413 kts | 62° |
| 2026-05-06 01:03 | 41.41315 | -72.38548 | 21455 ft | 410 kts | 62° |
| 2026-05-06 01:03 | 41.42608 | -72.35122 | 21361 ft | 420 kts | 62° |
| 2026-05-06 01:03 | 41.43926 | -72.31620 | 21248 ft | 424 kts | 62° |
| 2026-05-06 01:04 | 41.45245 | -72.28113 | 21132 ft | 422 kts | 62° |
| 2026-05-06 01:04 | 41.46556 | -72.24623 | 21024 ft | 420 kts | 62° |
| 2026-05-06 01:04 | 41.47861 | -72.21144 | 20918 ft | 419 kts | 62° |
| 2026-05-06 01:04 | 41.49157 | -72.17649 | 20629 ft | 423 kts | 63° |
| 2026-05-06 01:05 | 41.50450 | -72.14115 | 20339 ft | 422 kts | 63° |
| 2026-05-06 01:05 | 41.51711 | -72.10652 | 20059 ft | 418 kts | 63° |
| 2026-05-06 01:05 | 41.52977 | -72.07179 | 19767 ft | 414 kts | 63° |
| 2026-05-06 01:05 | 41.54233 | -72.03734 | 19482 ft | 411 kts | 63° |
| 2026-05-06 01:06 | 41.55481 | -72.00313 | 19205 ft | 409 kts | 64° |
| 2026-05-06 01:06 | 41.56624 | -71.96854 | 18927 ft | 407 kts | 68° |
| 2026-05-06 01:06 | 41.57650 | -71.93344 | 18664 ft | 405 kts | 69° |
| 2026-05-06 01:06 | 41.58660 | -71.89856 | 18380 ft | 404 kts | 69° |
| 2026-05-06 01:07 | 41.59685 | -71.86373 | 18079 ft | 403 kts | 69° |
| 2026-05-06 01:07 | 41.60711 | -71.82904 | 17784 ft | 402 kts | 69° |
| 2026-05-06 01:07 | 41.61712 | -71.79519 | 17493 ft | 400 kts | 69° |
| 2026-05-06 01:07 | 41.62727 | -71.76081 | 17268 ft | 397 kts | 69° |
| 2026-05-06 01:08 | 41.63734 | -71.72665 | 17041 ft | 395 kts | 69° |
| 2026-05-06 01:08 | 41.64737 | -71.69257 | 16787 ft | 394 kts | 69° |
| 2026-05-06 01:08 | 41.65731 | -71.65880 | 16533 ft | 394 kts | 69° |
| 2026-05-06 01:08 | 41.66727 | -71.62489 | 16257 ft | 388 kts | 69° |
| 2026-05-06 01:09 | 41.67703 | -71.59163 | 15986 ft | 379 kts | 69° |
| 2026-05-06 01:09 | 41.68644 | -71.55951 | 15724 ft | 370 kts | 69° |
| 2026-05-06 01:09 | 41.69566 | -71.52799 | 15475 ft | 361 kts | 69° |
| 2026-05-06 01:09 | 41.70474 | -71.49690 | 15231 ft | 357 kts | 69° |
| 2026-05-06 01:10 | 41.71373 | -71.46612 | 15008 ft | 355 kts | 69° |
| 2026-05-06 01:10 | 41.72272 | -71.43534 | 14772 ft | 354 kts | 68° |
| 2026-05-06 01:10 | 41.72902 | -71.41657 | 14614 ft | 354 kts | 62° |
| 2026-05-06 01:10 | 41.74107 | -71.38817 | 14381 ft | 353 kts | 58° |
| 2026-05-06 01:11 | 41.75384 | -71.36004 | 14142 ft | 353 kts | 58° |
| 2026-05-06 01:11 | 41.76633 | -71.33193 | 13895 ft | 350 kts | 59° |
| 2026-05-06 01:11 | 41.77849 | -71.30382 | 13490 ft | 348 kts | 59° |
| 2026-05-06 01:11 | 41.79048 | -71.27575 | 13018 ft | 347 kts | 59° |
| 2026-05-06 01:12 | 41.80243 | -71.24769 | 12595 ft | 345 kts | 60° |
| 2026-05-06 01:12 | 41.81426 | -71.21984 | 12245 ft | 341 kts | 60° |
| 2026-05-06 01:12 | 41.82594 | -71.19239 | 12044 ft | 337 kts | 60° |
| 2026-05-06 01:12 | 41.83752 | -71.16514 | 11840 ft | 336 kts | 60° |
| 2026-05-06 01:13 | 41.84906 | -71.13796 | 11667 ft | 334 kts | 60° |
| 2026-05-06 01:13 | 41.86027 | -71.11163 | 11490 ft | 326 kts | 59° |
| 2026-05-06 01:13 | 41.87155 | -71.08548 | 11317 ft | 323 kts | 59° |
| 2026-05-06 01:13 | 41.88277 | -71.05957 | 11147 ft | 322 kts | 59° |
| 2026-05-06 01:14 | 41.90541 | -71.00726 | 10815 ft | 327 kts | 59° |
| 2026-05-06 01:14 | 41.91683 | -70.98080 | 10641 ft | 327 kts | 59° |
| 2026-05-06 01:14 | 41.92819 | -70.95444 | 10463 ft | 327 kts | 59° |
| 2026-05-06 01:15 | 41.93949 | -70.92819 | 10289 ft | 327 kts | 59° |
| 2026-05-06 01:15 | 41.95085 | -70.90176 | 10115 ft | 326 kts | 59° |
| 2026-05-06 01:15 | 41.96221 | -70.87533 | 9932 ft | 326 kts | 59° |
| 2026-05-06 01:15 | 41.97352 | -70.84897 | 9759 ft | 325 kts | 59° |
| 2026-05-06 01:16 | 41.98474 | -70.82283 | 9557 ft | 325 kts | 59° |
| 2026-05-06 01:16 | 41.99580 | -70.79699 | 9400 ft | 324 kts | 59° |
| 2026-05-06 01:16 | 42.00701 | -70.77085 | 9234 ft | 323 kts | 59° |
| 2026-05-06 01:16 | 42.01969 | -70.74644 | 9006 ft | 321 kts | 48° |
| 2026-05-06 01:17 | 42.03466 | -70.72440 | 8847 ft | 319 kts | 44° |
| 2026-05-06 01:17 | 42.04993 | -70.70280 | 8670 ft | 318 kts | 45° |
| 2026-05-06 01:17 | 42.06498 | -70.68103 | 8505 ft | 317 kts | 46° |
| 2026-05-06 01:17 | 42.07979 | -70.65909 | 8338 ft | 316 kts | 46° |
| 2026-05-06 01:18 | 42.09450 | -70.63710 | 8168 ft | 316 kts | 46° |
| 2026-05-06 01:18 | 42.11073 | -70.61845 | 7968 ft | 311 kts | 24° |
| 2026-05-06 01:18 | 42.13074 | -70.60897 | 7711 ft | 306 kts | 7° |
| 2026-05-06 01:18 | 42.15164 | -70.60314 | 7433 ft | 307 kts | 5° |
| 2026-05-06 01:19 | 42.17242 | -70.59768 | 7143 ft | 304 kts | 5° |
| 2026-05-06 01:19 | 42.18584 | -70.59413 | 6951 ft | 301 kts | 5° |
| 2026-05-06 01:19 | 42.20623 | -70.58866 | 6649 ft | 297 kts | 5° |
| 2026-05-06 01:19 | 42.22615 | -70.58323 | 6374 ft | 295 kts | 5° |
| 2026-05-06 01:20 | 42.24629 | -70.57768 | 6081 ft | 295 kts | 5° |
| 2026-05-06 01:20 | 42.26640 | -70.57208 | 5790 ft | 295 kts | 5° |
| 2026-05-06 01:20 | 42.28644 | -70.56648 | 5519 ft | 294 kts | 5° |
| 2026-05-06 01:20 | 42.30648 | -70.56116 | 5230 ft | 291 kts | 359° |
| 2026-05-06 01:21 | 42.32539 | -70.56381 | 5041 ft | 273 kts | 331° |
| 2026-05-06 01:21 | 42.34192 | -70.57594 | 5026 ft | 267 kts | 313° |
| 2026-05-06 01:21 | 42.35548 | -70.59258 | 5005 ft | 262 kts | 308° |
| 2026-05-06 01:21 | 42.36830 | -70.60969 | 4997 ft | 259 kts | 307° |
| 2026-05-06 01:22 | 42.38081 | -70.62652 | 4985 ft | 255 kts | 307° |
| 2026-05-06 01:22 | 42.39336 | -70.64333 | 4982 ft | 253 kts | 307° |
| 2026-05-06 01:22 | 42.40592 | -70.66009 | 4980 ft | 253 kts | 307° |
| 2026-05-06 01:22 | 42.41845 | -70.67675 | 4977 ft | 252 kts | 307° |
| 2026-05-06 01:23 | 42.43082 | -70.69333 | 4984 ft | 251 kts | 307° |
| 2026-05-06 01:23 | 42.44278 | -70.70943 | 4974 ft | 251 kts | 307° |
| 2026-05-06 01:23 | 42.45510 | -70.72608 | 4998 ft | 255 kts | 307° |
| 2026-05-06 01:23 | 42.46761 | -70.74309 | 4983 ft | 257 kts | 307° |
| 2026-05-06 01:24 | 42.48013 | -70.76019 | 4979 ft | 252 kts | 307° |
| 2026-05-06 01:24 | 42.49217 | -70.77647 | 4966 ft | 238 kts | 307° |
| 2026-05-06 01:24 | 42.50368 | -70.79179 | 4880 ft | 227 kts | 307° |
| 2026-05-06 01:24 | 42.51474 | -70.80623 | 4801 ft | 217 kts | 307° |
| 2026-05-06 01:25 | 42.52476 | -70.82021 | 4622 ft | 204 kts | 297° |
| 2026-05-06 01:25 | 42.53299 | -70.83585 | 4248 ft | 201 kts | 295° |
| 2026-05-06 01:25 | 42.54111 | -70.85142 | 3824 ft | 203 kts | 296° |
| 2026-05-06 01:25 | 42.54908 | -70.86670 | 3576 ft | 197 kts | 296° |
| 2026-05-06 01:26 | 42.55624 | -70.88151 | 3493 ft | 176 kts | 281° |
| 2026-05-06 01:26 | 42.55542 | -70.89579 | 3357 ft | 145 kts | 233° |
| 2026-05-06 01:26 | 42.54797 | -70.90434 | 3137 ft | 140 kts | 221° |
| 2026-05-06 01:26 | 42.54021 | -70.91227 | 3044 ft | 141 kts | 220° |
| 2026-05-06 01:27 | 42.53176 | -70.91944 | 3004 ft | 146 kts | 215° |
| 2026-05-06 01:27 | 42.52288 | -70.92561 | 2995 ft | 145 kts | 214° |
| 2026-05-06 01:27 | 42.51370 | -70.93181 | 2876 ft | 150 kts | 211° |
| 2026-05-06 01:27 | 42.50417 | -70.93727 | 2694 ft | 147 kts | 210° |
| 2026-05-06 01:28 | 42.49485 | -70.94205 | 2502 ft | 139 kts | 209° |
| 2026-05-06 01:28 | 42.48623 | -70.94628 | 2329 ft | 123 kts | 209° |
| 2026-05-06 01:28 | 42.47861 | -70.94998 | 2208 ft | 109 kts | 210° |
| 2026-05-06 01:28 | 42.47125 | -70.95360 | 2058 ft | 117 kts | 209° |
| 2026-05-06 01:29 | 42.46346 | -70.95740 | 1903 ft | 121 kts | 208° |
| 2026-05-06 01:29 | 42.45557 | -70.96121 | 1733 ft | 120 kts | 207° |
| 2026-05-06 01:29 | 42.44769 | -70.96502 | 1565 ft | 123 kts | 207° |
| 2026-05-06 01:29 | 42.43957 | -70.96894 | 1419 ft | 125 kts | 207° |
| 2026-05-06 01:30 | 42.43158 | -70.97282 | 1251 ft | 122 kts | 206° |
| 2026-05-06 01:30 | 42.42334 | -70.97683 | 1071 ft | 129 kts | 204° |
| 2026-05-06 01:30 | 42.41492 | -70.98091 | 895 ft | 132 kts | 202° |
| 2026-05-06 01:30 | 42.40663 | -70.98492 | 743 ft | 137 kts | 200° |
| 2026-05-06 01:31 | 42.39771 | -70.98924 | 571 ft | 137 kts | 200° |
| 2026-05-06 01:31 | 42.38869 | -70.99355 | 391 ft | 132 kts | 201° |
| 2026-05-06 01:31 | 42.37999 | -70.99786 | 200 ft | 134 kts | 201° |
| 2026-05-06 01:31 | 42.37151 | -71.00196 | 28 ft | 124 kts | 199° |
| 2026-05-06 01:32 | 42.36463 | -71.00527 | 24 ft | 84 kts | 200° |
| 2026-05-06 01:32 | 42.36062 | -71.00724 | 29 ft | 39 kts | 207° |
| 2026-05-06 01:32 | 42.35890 | -71.00961 | 26 ft | 33 kts | 229° |
| 2026-05-06 01:32 | 42.35840 | -71.01219 | 24 ft | 29 kts | 277° |
| 2026-05-06 01:33 | 42.35873 | -71.01478 | 24 ft | 24 kts | 281° |